sensor_id;sensor_type;location;lat;lon;timestamp;pressure;altitude;pressure_sealevel;temperature;humidity
34586;BME280;20816;50.950;11.108;2023-02-03T00:01:55;99055.59;;;4.82;100.00
34586;BME280;20816;50.950;11.108;2023-02-03T00:04:22;99052.06;;;4.75;100.00
34586;BME280;20816;50.950;11.108;2023-02-03T00:06:49;99057.31;;;4.82;100.00
34586;BME280;20816;50.950;11.108;2023-02-03T00:09:16;99054.81;;;4.92;100.00
34586;BME280;20816;50.950;11.108;2023-02-03T00:11:44;99055.66;;;4.93;100.00
34586;BME280;20816;50.950;11.108;2023-02-03T00:14:11;99049.66;;;5.01;100.00
34586;BME280;20816;50.950;11.108;2023-02-03T00:16:37;99046.19;;;5.04;100.00
34586;BME280;20816;50.950;11.108;2023-02-03T00:19:04;99039.31;;;5.12;100.00
34586;BME280;20816;50.950;11.108;2023-02-03T00:21:31;99028.94;;;5.15;100.00
34586;BME280;20816;50.950;11.108;2023-02-03T00:23:58;99022.78;;;5.07;100.00
34586;BME280;20816;50.950;11.108;2023-02-03T00:26:25;99028.00;;;5.09;100.00
34586;BME280;20816;50.950;11.108;2023-02-03T00:28:54;99030.72;;;5.22;100.00
34586;BME280;20816;50.950;11.108;2023-02-03T00:31:22;99019.38;;;5.16;100.00
34586;BME280;20816;50.950;11.108;2023-02-03T00:33:54;99017.66;;;5.19;100.00
34586;BME280;20816;50.950;11.108;2023-02-03T00:36:23;99015.06;;;5.22;100.00
34586;BME280;20816;50.950;11.108;2023-02-03T00:38:50;99017.66;;;5.19;100.00
34586;BME280;20816;50.950;11.108;2023-02-03T00:41:17;99009.88;;;5.25;100.00
34586;BME280;20816;50.950;11.108;2023-02-03T00:43:44;99006.34;;;5.17;100.00
34586;BME280;20816;50.950;11.108;2023-02-03T00:46:11;99009.88;;;5.25;100.00
34586;BME280;20816;50.950;11.108;2023-02-03T00:48:38;99009.88;;;5.25;100.00
34586;BME280;20816;50.950;11.108;2023-02-03T00:51:05;99005.53;;;5.27;100.00
34586;BME280;20816;50.950;11.108;2023-02-03T00:53:32;98997.72;;;5.24;100.00
34586;BME280;20816;50.950;11.108;2023-02-03T00:55:58;99002.09;;;5.33;100.00
34586;BME280;20816;50.950;11.108;2023-02-03T00:58:25;98996.03;;;5.32;100.00
34586;BME280;20816;50.950;11.108;2023-02-03T01:00:54;98991.69;;;5.31;100.00
34586;BME280;20816;50.950;11.108;2023-02-03T01:03:21;98992.56;;;5.37;100.00
34586;BME280;20816;50.950;11.108;2023-02-03T01:05:48;99001.22;;;5.35;100.00
34586;BME280;20816;50.950;11.108;2023-02-03T01:08:14;98999.53;;;5.44;100.00
34586;BME280;20816;50.950;11.108;2023-02-03T01:10:41;98997.75;;;5.33;100.00
34586;BME280;20816;50.950;11.108;2023-02-03T01:13:08;99000.41;;;5.44;100.00
34586;BME280;20816;50.950;11.108;2023-02-03T01:15:35;98999.53;;;5.44;100.00
34586;BME280;20816;50.950;11.108;2023-02-03T01:18:01;98975.22;;;5.42;100.00
34586;BME280;20816;50.950;11.108;2023-02-03T01:20:28;98970.88;;;5.42;100.00
34586;BME280;20816;50.950;11.108;2023-02-03T01:22:55;98966.53;;;5.43;100.00
34586;BME280;20816;50.950;11.108;2023-02-03T01:25:21;98975.25;;;5.48;100.00
34586;BME280;20816;50.950;11.108;2023-02-03T01:27:48;98976.09;;;5.42;100.00
34586;BME280;20816;50.950;11.108;2023-02-03T01:30:15;98962.19;;;5.42;100.00
34586;BME280;20816;50.950;11.108;2023-02-03T01:32:41;98964.78;;;5.42;100.00
34586;BME280;20816;50.950;11.108;2023-02-03T01:35:08;98962.22;;;5.48;100.00
34586;BME280;20816;50.950;11.108;2023-02-03T01:37:35;98973.50;;;5.47;100.00
34586;BME280;20816;50.950;11.108;2023-02-03T01:40:02;98962.22;;;5.51;100.00
34586;BME280;20816;50.950;11.108;2023-02-03T01:42:31;98940.50;;;5.49;100.00
34586;BME280;20816;50.950;11.108;2023-02-03T01:44:59;98936.16;;;5.51;100.00
34586;BME280;20816;50.950;11.108;2023-02-03T01:47:30;98926.59;;;5.50;100.00
34586;BME280;20816;50.950;11.108;2023-02-03T01:50:14;98935.28;;;5.46;100.00
34586;BME280;20816;50.950;11.108;2023-02-03T01:52:47;98933.53;;;5.48;100.00
34586;BME280;20816;50.950;11.108;2023-02-03T01:55:19;98932.66;;;5.52;100.00
34586;BME280;20816;50.950;11.108;2023-02-03T01:57:55;98942.28;;;5.62;100.00
34586;BME280;20816;50.950;11.108;2023-02-03T02:00:22;98945.75;;;5.64;100.00
34586;BME280;20816;50.950;11.108;2023-02-03T02:02:50;98944.91;;;5.67;100.00
34586;BME280;20816;50.950;11.108;2023-02-03T02:05:33;98937.97;;;5.73;100.00
34586;BME280;20816;50.950;11.108;2023-02-03T02:08:01;98936.22;;;5.71;100.00
34586;BME280;20816;50.950;11.108;2023-02-03T02:10:30;98934.47;;;5.70;100.00
34586;BME280;20816;50.950;11.108;2023-02-03T02:12:58;98933.63;;;5.75;100.00
34586;BME280;20816;50.950;11.108;2023-02-03T02:18:45;98943.19;;;5.76;100.00
34586;BME280;20816;50.950;11.108;2023-02-03T02:24:42;98939.75;;;5.88;100.00
34586;BME280;20816;50.950;11.108;2023-02-03T02:36:02;98931.91;;;5.83;100.00
34586;BME280;20816;50.950;11.108;2023-02-03T02:38:40;98936.28;;;5.89;100.00
34586;BME280;20816;50.950;11.108;2023-02-03T02:41:33;98934.50;;;5.82;100.00
34586;BME280;20816;50.950;11.108;2023-02-03T02:44:13;98933.66;;;5.87;100.00
34586;BME280;20816;50.950;11.108;2023-02-03T02:46:50;98951.06;;;5.87;100.00
34586;BME280;20816;50.950;11.108;2023-02-03T02:49:21;98949.34;;;5.90;100.00
34586;BME280;20816;50.950;11.108;2023-02-03T02:51:51;98965.88;;;5.91;100.00
34586;BME280;20816;50.950;11.108;2023-02-03T02:54:21;98958.91;;;5.93;100.00
34586;BME280;20816;50.950;11.108;2023-02-03T02:56:55;98935.47;;;5.95;100.00
34586;BME280;20816;50.950;11.108;2023-02-03T02:59:23;98920.66;;;5.95;100.00
34586;BME280;20816;50.950;11.108;2023-02-03T03:01:49;98926.75;;;5.96;100.00
34586;BME280;20816;50.950;11.108;2023-02-03T03:04:20;98918.06;;;5.97;100.00
34586;BME280;20816;50.950;11.108;2023-02-03T03:06:52;98921.56;;;6.05;100.00
34586;BME280;20816;50.950;11.108;2023-02-03T03:09:24;98916.31;;;6.02;100.00
34586;BME280;20816;50.950;11.108;2023-02-03T03:11:56;98914.56;;;6.10;100.00
34586;BME280;20816;50.950;11.108;2023-02-03T03:14:27;98915.47;;;6.12;100.00
34586;BME280;20816;50.950;11.108;2023-02-03T03:17:00;98922.44;;;6.14;100.00
34586;BME280;20816;50.950;11.108;2023-02-03T03:19:43;98924.16;;;6.15;100.00
34586;BME280;20816;50.950;11.108;2023-02-03T03:22:15;98932.84;;;6.16;100.00
34586;BME280;20816;50.950;11.108;2023-02-03T03:24:46;98938.97;;;6.21;100.00
34586;BME280;20816;50.950;11.108;2023-02-03T03:27:19;98947.66;;;6.26;100.00
34586;BME280;20816;50.950;11.108;2023-02-03T03:29:52;98945.94;;;6.19;100.00
34586;BME280;20816;50.950;11.108;2023-02-03T03:32:20;98925.91;;;6.24;100.00
34586;BME280;20816;50.950;11.108;2023-02-03T03:34:47;98932.00;;;6.20;100.00
34586;BME280;20816;50.950;11.108;2023-02-03T03:37:20;98921.56;;;6.14;100.00
34586;BME280;20816;50.950;11.108;2023-02-03T03:39:58;98905.03;;;6.15;100.00
34586;BME280;20816;50.950;11.108;2023-02-03T03:42:44;98878.06;;;6.19;100.00
34586;BME280;20816;50.950;11.108;2023-02-03T03:45:30;98890.25;;;6.14;100.00
34586;BME280;20816;50.950;11.108;2023-02-03T03:48:15;98888.47;;;6.10;100.00
34586;BME280;20816;50.950;11.108;2023-02-03T03:50:56;98894.59;;;6.06;100.00
34586;BME280;20816;50.950;11.108;2023-02-03T03:53:26;98901.53;;;5.99;100.00
34586;BME280;20816;50.950;11.108;2023-02-03T03:55:55;98897.19;;;6.00;100.00
34586;BME280;20816;50.950;11.108;2023-02-03T03:58:29;98901.53;;;5.98;100.00
34586;BME280;20816;50.950;11.108;2023-02-03T04:01:01;98900.66;;;5.96;100.00
34586;BME280;20816;50.950;11.108;2023-02-03T04:03:37;98890.25;;;6.05;100.00
34586;BME280;20816;50.950;11.108;2023-02-03T04:06:05;98906.75;;;5.98;100.00
34586;BME280;20816;50.950;11.108;2023-02-03T04:08:32;98906.75;;;5.99;100.00
34586;BME280;20816;50.950;11.108;2023-02-03T04:10:58;98918.03;;;6.01;100.00
34586;BME280;20816;50.950;11.108;2023-02-03T04:13:25;98923.28;;;6.03;100.00
34586;BME280;20816;50.950;11.108;2023-02-03T04:15:51;98918.06;;;6.00;100.00
34586;BME280;20816;50.950;11.108;2023-02-03T04:18:18;98923.28;;;6.06;100.00
34586;BME280;20816;50.950;11.108;2023-02-03T04:20:45;98905.91;;;6.11;100.00
34586;BME280;20816;50.950;11.108;2023-02-03T04:23:11;98897.19;;;6.15;100.00
34586;BME280;20816;50.950;11.108;2023-02-03T04:25:38;98903.28;;;6.12;100.00
34586;BME280;20816;50.950;11.108;2023-02-03T04:28:04;98907.63;;;6.06;100.00
34586;BME280;20816;50.950;11.108;2023-02-03T04:30:32;98911.13;;;6.14;100.00
34586;BME280;20816;50.950;11.108;2023-02-03T04:32:58;98900.69;;;6.11;100.00
34586;BME280;20816;50.950;11.108;2023-02-03T04:35:25;98908.50;;;6.08;100.00
34586;BME280;20816;50.950;11.108;2023-02-03T04:37:52;98905.91;;;6.11;100.00
34586;BME280;20816;50.950;11.108;2023-02-03T04:40:18;98905.00;;;6.07;100.00
34586;BME280;20816;50.950;11.108;2023-02-03T04:42:45;98895.47;;;6.11;100.00
34586;BME280;20816;50.950;11.108;2023-02-03T04:45:12;98885.88;;;6.05;100.00
34586;BME280;20816;50.950;11.108;2023-02-03T04:47:38;98867.63;;;6.16;100.00
34586;BME280;20816;50.950;11.108;2023-02-03T04:50:05;98859.81;;;6.11;100.00
34586;BME280;20816;50.950;11.108;2023-02-03T04:52:32;98843.25;;;6.08;100.00
34586;BME280;20816;50.950;11.108;2023-02-03T04:54:59;98841.50;;;6.10;100.00
34586;BME280;20816;50.950;11.108;2023-02-03T04:57:25;98841.53;;;6.16;100.00
34586;BME280;20816;50.950;11.108;2023-02-03T04:59:52;98845.88;;;6.12;100.00
34586;BME280;20816;50.950;11.108;2023-02-03T05:02:19;98841.53;;;6.13;100.00
34586;BME280;20816;50.950;11.108;2023-02-03T05:04:45;98838.94;;;6.19;100.00
34586;BME280;20816;50.950;11.108;2023-02-03T05:07:12;98828.47;;;6.24;100.00
34586;BME280;20816;50.950;11.108;2023-02-03T05:09:38;98803.25;;;6.29;100.00
34586;BME280;20816;50.950;11.108;2023-02-03T05:12:05;98816.28;;;6.26;100.00
34586;BME280;20816;50.950;11.108;2023-02-03T05:14:31;98824.13;;;6.27;100.00
34586;BME280;20816;50.950;11.108;2023-02-03T05:16:58;98811.94;;;6.32;100.00
34586;BME280;20816;50.950;11.108;2023-02-03T05:19:25;98797.97;;;6.42;100.00
34586;BME280;20816;50.950;11.108;2023-02-03T05:21:51;98794.50;;;6.40;100.00
34586;BME280;20816;50.950;11.108;2023-02-03T05:24:18;98791.91;;;6.34;100.00
34586;BME280;20816;50.950;11.108;2023-02-03T05:26:45;98787.56;;;6.30;100.00
34586;BME280;20816;50.950;11.108;2023-02-03T05:29:11;98797.13;;;6.27;100.00
34586;BME280;20816;50.950;11.108;2023-02-03T05:31:38;98798.00;;;6.35;100.00
34586;BME280;20816;50.950;11.108;2023-02-03T05:34:05;98804.09;;;6.46;100.00
34586;BME280;20816;50.950;11.108;2023-02-03T05:36:31;98816.25;;;6.42;100.00
34586;BME280;20816;50.950;11.108;2023-02-03T05:38:58;98811.91;;;6.47;100.00
34586;BME280;20816;50.950;11.108;2023-02-03T05:41:24;98804.06;;;6.52;100.00
34586;BME280;20816;50.950;11.108;2023-02-03T05:44:09;98803.16;;;6.59;100.00
34586;BME280;20816;50.950;11.108;2023-02-03T05:46:36;98806.66;;;6.60;100.00
34586;BME280;20816;50.950;11.108;2023-02-03T05:49:03;98792.75;;;6.55;100.00
34586;BME280;20816;50.950;11.108;2023-02-03T05:51:30;98788.34;;;6.66;100.00
34586;BME280;20816;50.950;11.108;2023-02-03T05:53:56;98791.00;;;6.54;100.00
34586;BME280;20816;50.950;11.108;2023-02-03T05:56:23;98793.59;;;6.60;100.00
34586;BME280;20816;50.950;11.108;2023-02-03T05:58:49;98777.91;;;6.66;100.00
34586;BME280;20816;50.950;11.108;2023-02-03T06:01:19;98777.03;;;6.67;100.00
34586;BME280;20816;50.950;11.108;2023-02-03T06:03:46;98778.78;;;6.69;100.00
34586;BME280;20816;50.950;11.108;2023-02-03T06:06:14;98777.03;;;6.70;100.00
34586;BME280;20816;50.950;11.108;2023-02-03T06:08:41;98775.25;;;6.73;100.00
34586;BME280;20816;50.950;11.108;2023-02-03T06:11:08;98768.38;;;6.60;100.00
34586;BME280;20816;50.950;11.108;2023-02-03T06:13:36;98770.06;;;6.66;100.00
34586;BME280;20816;50.950;11.108;2023-02-03T06:16:03;98766.53;;;6.79;100.00
34586;BME280;20816;50.950;11.108;2023-02-03T06:18:30;98768.28;;;6.74;100.00
34586;BME280;20816;50.950;11.108;2023-02-03T06:20:56;98758.72;;;6.71;100.00
34586;BME280;20816;50.950;11.108;2023-02-03T06:23:23;98763.06;;;6.77;100.00
34586;BME280;20816;50.950;11.108;2023-02-03T06:25:50;98767.38;;;6.83;100.00
34586;BME280;20816;50.950;11.108;2023-02-03T06:28:17;98750.81;;;6.88;100.00
34586;BME280;20816;50.950;11.108;2023-02-03T06:30:44;98746.50;;;6.84;100.00
34586;BME280;20816;50.950;11.108;2023-02-03T06:33:14;98750.88;;;6.79;100.00
34586;BME280;20816;50.950;11.108;2023-02-03T06:35:41;98745.63;;;6.85;100.00
34586;BME280;20816;50.950;11.108;2023-02-03T06:38:07;98753.47;;;6.79;100.00
34586;BME280;20816;50.950;11.108;2023-02-03T06:40:34;98773.47;;;6.89;100.00
34586;BME280;20816;50.950;11.108;2023-02-03T06:43:01;98775.22;;;6.87;100.00
34586;BME280;20816;50.950;11.108;2023-02-03T06:45:27;98759.53;;;6.93;100.00
34586;BME280;20816;50.950;11.108;2023-02-03T06:47:54;98763.84;;;6.97;100.00
34586;BME280;20816;50.950;11.108;2023-02-03T06:50:21;98760.41;;;6.89;100.00
34586;BME280;20816;50.950;11.108;2023-02-03T06:52:48;98754.28;;;6.96;100.00
34586;BME280;20816;50.950;11.108;2023-02-03T06:55:15;98750.78;;;7.00;100.00
34586;BME280;20816;50.950;11.108;2023-02-03T06:57:43;98745.53;;;6.97;100.00
34586;BME280;20816;50.950;11.108;2023-02-03T07:00:11;98737.72;;;7.00;100.00
34586;BME280;20816;50.950;11.108;2023-02-03T07:02:42;98736.84;;;6.95;100.00
34586;BME280;20816;50.950;11.108;2023-02-03T07:05:09;98740.31;;;6.97;100.00
34586;BME280;20816;50.950;11.108;2023-02-03T07:07:36;98747.28;;;7.01;100.00
34586;BME280;20816;50.950;11.108;2023-02-03T07:10:05;98746.44;;;6.96;100.00
34586;BME280;20816;50.950;11.108;2023-02-03T07:12:33;98745.56;;;7.00;100.00
34586;BME280;20816;50.950;11.108;2023-02-03T07:14:59;98751.63;;;6.99;100.00
34586;BME280;20816;50.950;11.108;2023-02-03T07:17:26;98738.56;;;6.99;100.00
34586;BME280;20816;50.950;11.108;2023-02-03T07:19:53;98750.72;;;7.07;100.00
34586;BME280;20816;50.950;11.108;2023-02-03T07:22:19;98738.56;;;6.98;100.00
34586;BME280;20816;50.950;11.108;2023-02-03T07:24:46;98753.31;;;7.11;100.00
34586;BME280;20816;50.950;11.108;2023-02-03T07:27:13;98746.44;;;6.96;100.00
34586;BME280;20816;50.950;11.108;2023-02-03T07:29:39;98752.47;;;7.11;100.00
34586;BME280;20816;50.950;11.108;2023-02-03T07:32:06;98756.81;;;7.07;100.00
34586;BME280;20816;50.950;11.108;2023-02-03T07:34:33;98763.78;;;7.11;100.00
34586;BME280;20816;50.950;11.108;2023-02-03T07:36:59;98763.72;;;7.20;100.00
34586;BME280;20816;50.950;11.108;2023-02-03T07:39:26;98766.34;;;7.16;100.00
34586;BME280;20816;50.950;11.108;2023-02-03T07:41:53;98761.09;;;7.22;100.00
34586;BME280;20816;50.950;11.108;2023-02-03T07:44:19;98748.06;;;7.17;100.00
34586;BME280;20816;50.950;11.108;2023-02-03T07:46:47;98745.41;;;7.22;100.00
34586;BME280;20816;50.950;11.108;2023-02-03T07:49:13;98748.03;;;7.20;100.00
34586;BME280;20816;50.950;11.108;2023-02-03T07:51:40;98755.03;;;7.15;100.00
34586;BME280;20816;50.950;11.108;2023-02-03T07:54:07;98752.41;;;7.18;100.00
34586;BME280;20816;50.950;11.108;2023-02-03T07:56:34;98754.16;;;7.15;100.00
34586;BME280;20816;50.950;11.108;2023-02-03T07:59:01;98753.28;;;7.16;100.00
34586;BME280;20816;50.950;11.108;2023-02-03T08:01:28;98751.53;;;7.19;100.00
34586;BME280;20816;50.950;11.108;2023-02-03T08:03:56;98773.28;;;7.26;100.00
34586;BME280;20816;50.950;11.108;2023-02-03T08:06:24;98770.69;;;7.20;100.00
34586;BME280;20816;50.950;11.108;2023-02-03T08:08:50;98770.66;;;7.27;100.00
34586;BME280;20816;50.950;11.108;2023-02-03T08:11:19;98768.94;;;7.26;100.00
34586;BME280;20816;50.950;11.108;2023-02-03T08:13:46;98753.25;;;7.26;100.00
34586;BME280;20816;50.950;11.108;2023-02-03T08:16:12;98745.41;;;7.25;100.00
34586;BME280;20816;50.950;11.108;2023-02-03T08:18:39;98734.94;;;7.28;100.00
34586;BME280;20816;50.950;11.108;2023-02-03T08:21:06;98750.66;;;7.25;100.00
34586;BME280;20816;50.950;11.108;2023-02-03T08:23:33;98744.59;;;7.17;100.00
34586;BME280;20816;50.950;11.108;2023-02-03T08:25:59;98726.16;;;7.32;100.00
34586;BME280;20816;50.950;11.108;2023-02-03T08:28:26;98733.19;;;7.24;100.00
34586;BME280;20816;50.950;11.108;2023-02-03T08:30:53;98720.94;;;7.32;100.00
34586;BME280;20816;50.950;11.108;2023-02-03T08:33:19;98717.47;;;7.31;100.00
34586;BME280;20816;50.950;11.108;2023-02-03T08:35:48;98721.78;;;7.37;100.00
34586;BME280;20816;50.950;11.108;2023-02-03T08:38:15;98718.34;;;7.29;100.00
34586;BME280;20816;50.950;11.108;2023-02-03T08:40:41;98703.50;;;7.32;100.00
34586;BME280;20816;50.950;11.108;2023-02-03T08:43:08;98686.94;;;7.37;100.00
34586;BME280;20816;50.950;11.108;2023-02-03T08:45:35;98691.19;;;7.48;100.00
34586;BME280;20816;50.950;11.108;2023-02-03T08:48:02;98691.25;;;7.42;100.00
34586;BME280;20816;50.950;11.108;2023-02-03T08:50:29;98659.78;;;7.51;100.00
34586;BME280;20816;50.950;11.108;2023-02-03T08:52:56;98673.75;;;7.49;100.00
34586;BME280;20816;50.950;11.108;2023-02-03T08:55:22;98665.03;;;7.51;100.00
34586;BME280;20816;50.950;11.108;2023-02-03T08:57:49;98685.94;;;7.51;100.00
34586;BME280;20816;50.950;11.108;2023-02-03T09:00:16;98680.63;;;7.61;100.00
34586;BME280;20816;50.950;11.108;2023-02-03T09:02:43;98682.41;;;7.58;100.00
34586;BME280;20816;50.950;11.108;2023-02-03T09:05:10;98683.28;;;7.54;100.00
34586;BME280;20816;50.950;11.108;2023-02-03T09:07:37;98692.88;;;7.58;100.00
34586;BME280;20816;50.950;11.108;2023-02-03T09:10:04;98688.44;;;7.64;100.00
34586;BME280;20816;50.950;11.108;2023-02-03T09:12:30;98683.22;;;7.62;100.00
34586;BME280;20816;50.950;11.108;2023-02-03T09:14:57;98679.72;;;7.65;100.00
34586;BME280;20816;50.950;11.108;2023-02-03T09:17:24;98678.84;;;7.64;100.00
34586;BME280;20816;50.950;11.108;2023-02-03T09:19:51;98677.03;;;7.72;100.00
34586;BME280;20816;50.950;11.108;2023-02-03T09:22:17;98669.25;;;7.65;100.00
34586;BME280;20816;50.950;11.108;2023-02-03T09:24:44;98680.59;;;7.67;100.00
34586;BME280;20816;50.950;11.108;2023-02-03T09:27:11;98669.25;;;7.65;100.00
34586;BME280;20816;50.950;11.108;2023-02-03T09:29:38;98672.72;;;7.68;100.00
34586;BME280;20816;50.950;11.108;2023-02-03T09:32:05;98665.75;;;7.64;100.00
34586;BME280;20816;50.950;11.108;2023-02-03T09:34:35;98646.59;;;7.67;100.00
34586;BME280;20816;50.950;11.108;2023-02-03T09:37:01;98642.25;;;7.66;100.00
34586;BME280;20816;50.950;11.108;2023-02-03T09:39:29;98627.41;;;7.66;100.00
34586;BME280;20816;50.950;11.108;2023-02-03T09:44:42;98625.59;;;7.71;100.00
34586;BME280;20816;50.950;11.108;2023-02-03T09:47:18;98617.81;;;7.67;100.00
34586;BME280;20816;50.950;11.108;2023-02-03T09:49:52;98617.84;;;7.61;100.00
34586;BME280;20816;50.950;11.108;2023-02-03T09:52:23;98597.81;;;7.59;100.00
34586;BME280;20816;50.950;11.108;2023-02-03T09:55:03;98610.84;;;7.63;100.00
34586;BME280;20816;50.950;11.108;2023-02-03T09:57:39;98606.47;;;7.66;100.00
34586;BME280;20816;50.950;11.108;2023-02-03T10:00:22;98628.22;;;7.70;100.00
34586;BME280;20816;50.950;11.108;2023-02-03T10:03:06;98635.25;;;7.65;100.00
34586;BME280;20816;50.950;11.108;2023-02-03T10:05:52;98629.16;;;7.66;100.00
34586;BME280;20816;50.950;11.108;2023-02-03T10:08:47;98612.59;;;7.64;100.00
34586;BME280;20816;50.950;11.108;2023-02-03T10:16:51;98605.50;;;7.75;100.00
34586;BME280;20816;50.950;11.108;2023-02-03T10:19:32;98622.94;;;7.76;100.00
34586;BME280;20816;50.950;11.108;2023-02-03T10:22:03;98606.31;;;7.80;100.00
34586;BME280;20816;50.950;11.108;2023-02-03T10:24:39;98615.00;;;7.83;100.00
34586;BME280;20816;50.950;11.108;2023-02-03T10:27:16;98609.81;;;7.82;100.00
34586;BME280;20816;50.950;11.108;2023-02-03T10:29:44;98601.84;;;7.91;100.00
34586;BME280;20816;50.950;11.108;2023-02-03T10:32:16;98605.34;;;7.90;100.00
34586;BME280;20816;50.950;11.108;2023-02-03T10:34:45;98604.41;;;7.94;100.00
34586;BME280;20816;50.950;11.108;2023-02-03T10:37:26;98593.13;;;7.92;100.00
34586;BME280;20816;50.950;11.108;2023-02-03T10:39:56;98594.84;;;7.93;100.00
34586;BME280;20816;50.950;11.108;2023-02-03T10:42:24;98600.91;;;7.97;100.00
34586;BME280;20816;50.950;11.108;2023-02-03T10:44:58;98605.25;;;7.99;100.00
34586;BME280;20816;50.950;11.108;2023-02-03T10:47:34;98589.66;;;7.90;100.00
34586;BME280;20816;50.950;11.108;2023-02-03T10:52:41;98600.13;;;7.90;100.00
34586;BME280;20816;50.950;11.108;2023-02-03T10:55:28;98598.41;;;7.86;100.00
34586;BME280;20816;50.950;11.108;2023-02-03T10:57:57;98604.56;;;7.80;100.00
34586;BME280;20816;50.950;11.108;2023-02-03T11:00:31;98612.50;;;7.73;100.00
34586;BME280;20816;50.950;11.108;2023-02-03T11:03:15;98594.25;;;7.68;100.00
34586;BME280;20816;50.950;11.108;2023-02-03T11:05:43;98605.66;;;7.59;100.00
34586;BME280;20816;50.950;11.108;2023-02-03T11:08:14;98583.06;;;7.52;100.00
34586;BME280;20816;50.950;11.108;2023-02-03T11:10:42;98581.34;;;7.50;100.00
34586;BME280;20816;50.950;11.108;2023-02-03T11:13:15;98572.59;;;7.52;100.00
34586;BME280;20816;50.950;11.108;2023-02-03T11:15:44;98555.09;;;7.61;100.00
34586;BME280;20816;50.950;11.108;2023-02-03T11:18:34;98535.94;;;7.55;100.00
34586;BME280;20816;50.950;11.108;2023-02-03T11:21:15;98531.59;;;7.57;100.00
34586;BME280;20816;50.950;11.108;2023-02-03T11:23:52;98516.69;;;7.63;100.00
34586;BME280;20816;50.950;11.108;2023-02-03T11:26:33;98483.56;;;7.62;100.00
34586;BME280;20816;50.950;11.108;2023-02-03T11:29:03;98469.44;;;7.78;100.00
34586;BME280;20816;50.950;11.108;2023-02-03T11:31:33;98446.78;;;7.77;100.00
34586;BME280;20816;50.950;11.108;2023-02-03T11:34:18;98433.59;;;7.81;100.00
34586;BME280;20816;50.950;11.108;2023-02-03T11:36:46;98453.53;;;7.93;100.00
34586;BME280;20816;50.950;11.108;2023-02-03T11:39:28;98455.31;;;7.91;100.00
34586;BME280;20816;50.950;11.108;2023-02-03T11:41:55;98464.06;;;7.87;100.00
34586;BME280;20816;50.950;11.108;2023-02-03T11:44:25;98471.91;;;7.90;100.00
34586;BME280;20816;50.950;11.108;2023-02-03T11:47:08;98507.66;;;7.88;100.00
34586;BME280;20816;50.950;11.108;2023-02-03T11:50:06;98517.22;;;7.92;100.00
34586;BME280;20816;50.950;11.108;2023-02-03T12:31:08;98521.25;;;7.45;100.00
34586;BME280;20816;50.950;11.108;2023-02-03T12:33:46;98513.34;;;7.48;100.00
34586;BME280;20816;50.950;11.108;2023-02-03T12:36:18;98520.34;;;7.49;100.00
34586;BME280;20816;50.950;11.108;2023-02-03T12:38:53;98529.03;;;7.48;100.00
34586;BME280;20816;50.950;11.108;2023-02-03T12:41:25;98521.16;;;7.53;100.00
34586;BME280;20816;50.950;11.108;2023-02-03T12:43:58;98524.53;;;7.63;100.00
34586;BME280;20816;50.950;11.108;2023-02-03T12:46:43;98529.81;;;7.56;100.00
34586;BME280;20816;50.950;11.108;2023-02-03T12:49:29;98527.25;;;7.55;100.00
34586;BME280;20816;50.950;11.108;2023-02-03T12:52:02;98528.94;;;7.59;100.00
34586;BME280;20816;50.950;11.108;2023-02-03T12:54:46;98532.38;;;7.63;100.00
34586;BME280;20816;50.950;11.108;2023-02-03T12:57:27;98542.88;;;7.61;100.00
34586;BME280;20816;50.950;11.108;2023-02-03T13:00:03;98522.78;;;7.66;100.00
34586;BME280;20816;50.950;11.108;2023-02-03T13:02:41;98532.38;;;7.66;100.00
34586;BME280;20816;50.950;11.108;2023-02-03T13:05:41;98524.44;;;7.72;100.00
34586;BME280;20816;50.950;11.108;2023-02-03T13:08:26;98537.50;;;7.75;100.00
34586;BME280;20816;50.950;11.108;2023-02-03T13:11:20;98540.94;;;7.78;100.00
34586;BME280;20816;50.950;11.108;2023-02-03T13:14:14;98546.19;;;7.77;100.00
34586;BME280;20816;50.950;11.108;2023-02-03T13:16:49;98534.78;;;7.82;100.00
34586;BME280;20816;50.950;11.108;2023-02-03T13:19:28;98549.63;;;7.82;100.00
34586;BME280;20816;50.950;11.108;2023-02-03T13:21:59;98546.06;;;7.86;100.00
34586;BME280;20816;50.950;11.108;2023-02-03T13:24:26;98568.78;;;7.81;100.00
34586;BME280;20816;50.950;11.108;2023-02-03T13:32:26;98595.22;;;7.56;100.00
34586;BME280;20816;50.950;11.108;2023-02-03T13:40:18;98590.06;;;7.47;100.00
34586;BME280;20816;50.950;11.108;2023-02-03T13:42:57;98592.63;;;7.53;100.00
34586;BME280;20816;50.950;11.108;2023-02-03T13:45:29;98583.03;;;7.55;100.00
34586;BME280;20816;50.950;11.108;2023-02-03T13:48:27;98560.34;;;7.57;100.00
34586;BME280;20816;50.950;11.108;2023-02-03T13:51:04;98555.16;;;7.54;100.00
34586;BME280;20816;50.950;11.108;2023-02-03T13:53:36;98555.19;;;7.51;100.00
34586;BME280;20816;50.950;11.108;2023-02-03T13:56:16;98535.09;;;7.53;100.00
34586;BME280;20816;50.950;11.108;2023-02-03T13:59:04;98542.09;;;7.53;100.00
34586;BME280;20816;50.950;11.108;2023-02-03T14:01:36;98541.25;;;7.48;100.00
34586;BME280;20816;50.950;11.108;2023-02-03T14:04:06;98554.41;;;7.42;100.00
34586;BME280;20816;50.950;11.108;2023-02-03T14:09:16;98568.34;;;7.42;100.00
34586;BME280;20816;50.950;11.108;2023-02-03T14:11:46;98565.75;;;7.42;100.00
34586;BME280;20816;50.950;11.108;2023-02-03T14:16:48;98602.44;;;7.33;100.00
34586;BME280;20816;50.950;11.108;2023-02-03T14:22:07;98598.03;;;7.37;100.00
34586;BME280;20816;50.950;11.108;2023-02-03T14:24:38;98613.72;;;7.37;100.00
34586;BME280;20816;50.950;11.108;2023-02-03T14:27:17;98613.75;;;7.35;100.00
34586;BME280;20816;50.950;11.108;2023-02-03T14:30:10;98613.75;;;7.35;100.00
34586;BME280;20816;50.950;11.108;2023-02-03T14:32:52;98625.94;;;7.36;100.00